Time;durP1;ratioP1;P1;durP2;ratioP2;P2;SDS_P1;SDS_P2;PMS_P1;PMS_P2;Temp;Humidity;BMP_temperature;BMP_pressure;BME280_temperature;BME280_humidity;BME280_pressure;Samples;Min_cycle;Max_cycle;Signal;HPM_P1;HPM_P2
2022/10/29 00:01:54;;;;;;;40.13;16.08;;;12.40;99.90;;;;;;5020743;28;38478;-75
2022/10/29 00:04:21;;;;;;;28.30;12.00;;;12.60;99.90;;;;;;5014854;28;36780;-75
2022/10/29 00:06:47;;;;;;;40.70;13.15;;;12.70;99.90;;;;;;5026796;28;36565;-75
2022/10/29 00:09:13;;;;;;;31.60;12.40;;;12.50;99.90;;;;;;5025844;28;40232;-74
2022/10/29 00:11:40;;;;;;;28.85;13.15;;;12.50;99.90;;;;;;5017661;28;37083;-75
2022/10/29 00:14:06;;;;;;;26.98;12.27;;;12.40;99.90;;;;;;5022496;28;37996;-75
2022/10/29 00:16:38;;;;;;;34.85;13.15;;;12.50;99.90;;;;;;5010062;28;36066;-75
2022/10/29 00:19:04;;;;;;;34.33;12.48;;;12.40;99.90;;;;;;5014790;28;38756;-75
2022/10/29 00:21:31;;;;;;;36.28;14.05;;;12.30;99.90;;;;;;5017008;28;38867;-75
2022/10/29 00:23:57;;;;;;;42.88;15.38;;;12.30;99.90;;;;;;5028174;28;37531;-75
2022/10/29 00:26:26;;;;;;;35.05;14.07;;;12.20;99.90;;;;;;5011681;28;37081;-75
2022/10/29 00:28:54;;;;;;;45.72;17.90;;;12.20;99.90;;;;;;5022792;28;39818;-75
2022/10/29 00:31:23;;;;;;;35.15;14.68;;;12.20;99.90;;;;;;5024825;28;38396;-75
2022/10/29 00:33:50;;;;;;;35.78;15.02;;;12.20;99.90;;;;;;5029109;28;37992;-76
2022/10/29 00:36:20;;;;;;;31.88;14.02;;;12.10;99.90;;;;;;5019223;28;37313;-75
2022/10/29 00:38:47;;;;;;;35.05;17.23;;;12.00;99.90;;;;;;5033588;28;38987;-75
2022/10/29 00:41:17;;;;;;;39.63;16.33;;;12.00;99.90;;;;;;5018202;28;38230;-75
2022/10/29 00:43:47;;;;;;;38.30;14.52;;;11.90;99.90;;;;;;5022568;28;39766;-76
2022/10/29 00:46:33;;;;;;;34.58;16.73;;;11.90;99.90;;;;;;5019938;28;37783;-76
2022/10/29 00:48:59;;;;;;;35.90;15.18;;;11.90;99.90;;;;;;5019994;28;40054;-75
2022/10/29 00:51:27;;;;;;;37.10;16.75;;;11.90;99.90;;;;;;5032457;28;37381;-76
2022/10/29 00:54:14;;;;;;;28.02;13.00;;;11.90;99.90;;;;;;5019662;28;36955;-76
2022/10/29 00:56:52;;;;;;;29.45;12.90;;;11.90;99.90;;;;;;5018989;28;47525;-75
2022/10/29 00:59:19;;;;;;;33.75;14.48;;;11.80;99.90;;;;;;5013424;28;38843;-75
2022/10/29 01:04:22;;;;;;;26.25;11.93;;;11.80;99.90;;;;;;5006599;22;20058;-79
2022/10/29 01:06:48;;;;;;;27.42;13.85;;;11.70;99.90;;;;;;4959706;28;37096;-77
2022/10/29 01:09:15;;;;;;;26.75;12.68;;;11.70;99.90;;;;;;4962822;28;39330;-78
2022/10/29 01:12:13;;;;;;;27.73;13.98;;;11.60;99.90;;;;;;4977604;28;37222;-78
2022/10/29 01:15:03;;;;;;;32.42;13.50;;;11.60;99.90;;;;;;4973967;28;48330;-78
2022/10/29 01:17:44;;;;;;;23.20;11.65;;;11.60;99.90;;;;;;4976074;28;37017;-79
2022/10/29 01:20:49;;;;;;;30.63;13.65;;;11.60;99.90;;;;;;4971784;28;37735;-79
2022/10/29 01:23:41;;;;;;;27.25;12.75;;;11.60;99.90;;;;;;4952218;28;38571;-79
2022/10/29 01:26:48;;;;;;;28.75;10.98;;;11.50;99.90;;;;;;4966567;28;37931;-78
2022/10/29 01:29:39;;;;;;;22.65;9.93;;;11.60;99.90;;;;;;4955130;28;40903;-79
2022/10/29 01:32:12;;;;;;;32.45;13.02;;;11.60;99.90;;;;;;4971995;28;38721;-78
2022/10/29 01:35:06;;;;;;;26.80;12.07;;;11.50;99.90;;;;;;4976431;28;38447;-78
2022/10/29 01:38:01;;;;;;;26.17;11.50;;;11.50;99.90;;;;;;4970468;28;47947;-78
2022/10/29 01:40:41;;;;;;;23.67;11.57;;;11.40;99.90;;;;;;4971965;28;38256;-78
2022/10/29 01:43:36;;;;;;;24.20;10.48;;;11.40;99.90;;;;;;4967432;28;39285;-79
2022/10/29 01:46:35;;;;;;;20.25;10.73;;;11.40;99.90;;;;;;4969020;28;39547;-78
2022/10/29 01:49:06;;;;;;;25.48;13.00;;;11.30;99.90;;;;;;4971847;28;46994;-78
2022/10/29 01:51:35;;;;;;;21.70;10.97;;;11.30;99.90;;;;;;4969549;28;49848;-78
2022/10/29 01:54:07;;;;;;;24.77;10.60;;;11.30;99.90;;;;;;4966499;28;38000;-78
2022/10/29 01:56:33;;;;;;;27.98;14.30;;;11.20;99.90;;;;;;4970139;28;48901;-79
2022/10/29 01:59:03;;;;;;;24.77;11.20;;;11.20;99.90;;;;;;4970873;28;37990;-78
2022/10/29 02:02:15;;;;;;;25.98;11.77;;;11.20;99.90;;;;;;4962025;28;49456;-79
2022/10/29 02:04:53;;;;;;;29.83;11.93;;;11.10;99.90;;;;;;4968330;28;46882;-79
2022/10/29 02:07:38;;;;;;;28.25;11.30;;;11.10;99.90;;;;;;4969157;28;38613;-79
2022/10/29 02:10:14;;;;;;;25.38;11.75;;;11.00;99.90;;;;;;4961108;28;37916;-79
2022/10/29 02:12:52;;;;;;;21.70;11.07;;;11.00;99.90;;;;;;4967805;28;37901;-79
2022/10/29 02:15:24;;;;;;;28.92;11.05;;;11.00;99.90;;;;;;4980442;28;39613;-79
2022/10/29 02:17:51;;;;;;;23.80;12.50;;;10.90;99.90;;;;;;4970029;28;39216;-79
2022/10/29 02:20:17;;;;;;;33.92;13.60;;;10.90;99.90;;;;;;4959870;28;38554;-79
2022/10/29 02:22:44;;;;;;;20.77;11.93;;;10.90;99.90;;;;;;4968486;28;35913;-78
2022/10/29 02:25:10;;;;;;;18.40;10.60;;;11.00;99.90;;;;;;4971691;28;38148;-79
2022/10/29 02:27:36;;;;;;;22.08;9.10;;;11.10;99.90;;;;;;4970257;28;38518;-79
2022/10/29 02:30:03;;;;;;;16.05;8.35;;;11.30;99.90;;;;;;4969092;28;38803;-79
2022/10/29 02:32:31;;;;;;;14.18;8.60;;;11.30;99.90;;;;;;4971361;28;36829;-80
2022/10/29 02:34:58;;;;;;;22.42;11.85;;;11.30;99.90;;;;;;4967576;28;37429;-79
2022/10/29 02:37:27;;;;;;;28.08;12.65;;;11.30;99.90;;;;;;4965882;28;39672;-79
2022/10/29 02:39:53;;;;;;;29.88;12.75;;;11.30;99.90;;;;;;4971595;28;39250;-80
2022/10/29 02:42:20;;;;;;;24.20;11.45;;;11.30;99.90;;;;;;4971556;28;37563;-79
2022/10/29 02:44:46;;;;;;;19.60;11.10;;;11.30;99.90;;;;;;4975222;28;37209;-80
2022/10/29 02:47:12;;;;;;;25.30;11.55;;;11.20;99.90;;;;;;4971306;28;39052;-79
2022/10/29 02:49:38;;;;;;;24.00;12.65;;;11.20;99.90;;;;;;4971401;28;38157;-79
2022/10/29 02:52:04;;;;;;;19.23;12.02;;;11.20;99.90;;;;;;4963878;28;37670;-79
2022/10/29 02:54:30;;;;;;;20.83;11.73;;;11.20;99.90;;;;;;4975979;28;39727;-81
2022/10/29 02:56:56;;;;;;;21.45;11.45;;;11.20;99.90;;;;;;4969943;28;38949;-78
2022/10/29 02:59:23;;;;;;;25.17;14.05;;;11.30;99.90;;;;;;4964564;28;36385;-79
2022/10/29 03:01:49;;;;;;;21.15;11.88;;;11.40;99.90;;;;;;4964096;28;39316;-79
2022/10/29 03:04:15;;;;;;;22.63;12.13;;;11.40;99.90;;;;;;5004524;28;38382;-79
2022/10/29 03:06:41;;;;;;;29.02;12.73;;;11.40;99.90;;;;;;5008070;28;38485;-79
2022/10/29 03:09:07;;;;;;;21.38;13.13;;;11.40;99.90;;;;;;5006084;28;38620;-79
2022/10/29 03:11:33;;;;;;;21.75;12.63;;;11.40;99.90;;;;;;5005990;28;37536;-79
2022/10/29 03:14:00;;;;;;;15.23;8.68;;;11.50;99.90;;;;;;5009514;28;38825;-79
2022/10/29 03:16:26;;;;;;;22.70;12.82;;;11.50;99.90;;;;;;5000721;28;38925;-79
2022/10/29 03:18:52;;;;;;;21.15;12.05;;;11.50;99.90;;;;;;5004474;28;36567;-80
2022/10/29 03:21:18;;;;;;;25.70;9.63;;;11.60;99.90;;;;;;5010122;28;37075;-79
2022/10/29 03:23:45;;;;;;;17.50;11.43;;;11.60;99.90;;;;;;5008378;28;38932;-79
2022/10/29 03:26:12;;;;;;;20.58;11.50;;;11.70;99.90;;;;;;5005540;28;37011;-79
2022/10/29 03:28:38;;;;;;;20.90;11.65;;;11.70;99.90;;;;;;5013069;28;37151;-79
2022/10/29 03:31:04;;;;;;;25.35;10.52;;;11.70;99.90;;;;;;5006779;28;37414;-79
2022/10/29 03:33:30;;;;;;;27.15;12.48;;;11.70;99.90;;;;;;5011838;28;47077;-79
2022/10/29 03:36:01;;;;;;;21.98;13.18;;;11.70;99.90;;;;;;5001212;28;37986;-79
2022/10/29 03:38:28;;;;;;;25.30;12.52;;;11.70;99.90;;;;;;4997726;28;36560;-78
2022/10/29 03:40:54;;;;;;;26.05;12.80;;;11.70;99.90;;;;;;5010735;28;39694;-79
2022/10/29 03:43:20;;;;;;;26.70;12.88;;;11.70;99.90;;;;;;5003268;28;38798;-79
2022/10/29 03:45:54;;;;;;;19.50;12.15;;;11.70;99.90;;;;;;5011713;28;37497;-79
2022/10/29 03:48:21;;;;;;;16.73;10.32;;;11.80;99.90;;;;;;5010385;28;39536;-78
2022/10/29 03:51:00;;;;;;;23.90;12.68;;;11.90;99.90;;;;;;5007961;28;38253;-79
2022/10/29 03:53:27;;;;;;;24.05;13.70;;;11.90;99.90;;;;;;5008672;28;39918;-78
2022/10/29 03:55:55;;;;;;;30.08;15.32;;;11.90;99.90;;;;;;5016753;28;39068;-79
2022/10/29 03:58:21;;;;;;;23.90;13.02;;;12.00;99.90;;;;;;5007824;28;38117;-79
2022/10/29 04:01:03;;;;;;;24.13;14.00;;;12.00;99.90;;;;;;5009419;28;35944;-79
2022/10/29 04:03:32;;;;;;;28.27;14.48;;;12.00;99.90;;;;;;5007484;28;38806;-78
2022/10/29 04:06:00;;;;;;;21.85;13.13;;;12.00;99.90;;;;;;4998114;28;38092;-78
2022/10/29 04:08:27;;;;;;;34.35;17.23;;;12.00;99.90;;;;;;5001102;28;39549;-79
2022/10/29 04:10:53;;;;;;;21.98;13.60;;;12.10;99.90;;;;;;5020102;28;36147;-78
2022/10/29 04:13:19;;;;;;;25.85;14.45;;;12.10;99.90;;;;;;5019480;28;39277;-79
2022/10/29 04:15:45;;;;;;;19.23;10.75;;;12.10;99.90;;;;;;5016407;28;36849;-78
2022/10/29 04:18:12;;;;;;;31.70;17.33;;;12.10;99.90;;;;;;5019627;28;37861;-78
2022/10/29 04:20:39;;;;;;;30.65;17.02;;;12.20;99.90;;;;;;5004457;28;35862;-78
2022/10/29 04:23:06;;;;;;;32.45;17.48;;;12.20;99.90;;;;;;5020323;28;39419;-79
2022/10/29 04:25:32;;;;;;;36.03;20.33;;;12.20;99.90;;;;;;5008991;28;39314;-79
2022/10/29 04:27:58;;;;;;;32.58;19.98;;;12.30;99.90;;;;;;5009469;28;36627;-78
2022/10/29 04:30:24;;;;;;;40.17;20.02;;;12.30;99.90;;;;;;5007098;28;35434;-78
2022/10/29 04:32:54;;;;;;;32.80;18.55;;;12.30;99.90;;;;;;5011988;28;39674;-78
2022/10/29 04:35:20;;;;;;;32.90;19.35;;;12.30;99.90;;;;;;5010098;28;39586;-78
2022/10/29 04:37:46;;;;;;;37.67;20.88;;;12.30;99.90;;;;;;5013496;28;39442;-78
2022/10/29 04:40:12;;;;;;;33.70;20.73;;;12.30;99.90;;;;;;5009433;28;37314;-79
2022/10/29 04:42:39;;;;;;;26.85;16.27;;;12.30;99.90;;;;;;5011783;28;39305;-78
2022/10/29 04:45:06;;;;;;;29.73;15.88;;;12.30;99.90;;;;;;5012363;28;39871;-78
2022/10/29 04:47:33;;;;;;;26.35;17.27;;;12.30;99.90;;;;;;5009705;28;38247;-78
2022/10/29 04:49:59;;;;;;;35.40;19.58;;;12.30;99.90;;;;;;5009580;28;37727;-79
2022/10/29 04:52:25;;;;;;;40.35;21.42;;;12.30;99.90;;;;;;5013189;28;38911;-79
2022/10/29 04:54:51;;;;;;;30.08;17.80;;;12.40;99.90;;;;;;5012142;28;38902;-79
2022/10/29 04:57:17;;;;;;;38.90;21.15;;;12.40;99.90;;;;;;5013922;28;37992;-78
2022/10/29 04:59:43;;;;;;;31.88;17.98;;;12.50;99.90;;;;;;5012022;28;37261;-78
2022/10/29 05:02:10;;;;;;;34.65;21.05;;;12.50;99.90;;;;;;5003988;28;39474;-78
2022/10/29 05:04:36;;;;;;;33.67;21.02;;;12.50;99.90;;;;;;5003085;28;38982;-78
2022/10/29 05:07:05;;;;;;;36.03;21.45;;;12.50;99.90;;;;;;5011358;28;38981;-79
2022/10/29 05:09:31;;;;;;;38.05;21.50;;;12.50;99.90;;;;;;5034091;28;47277;-78
2022/10/29 05:11:57;;;;;;;31.48;20.42;;;12.50;99.90;;;;;;5007969;28;37496;-78
2022/10/29 05:14:23;;;;;;;32.38;19.92;;;12.50;99.90;;;;;;5006990;28;38727;-78
2022/10/29 05:16:49;;;;;;;30.17;20.80;;;12.50;99.90;;;;;;5008749;28;38559;-78
2022/10/29 05:19:15;;;;;;;36.35;20.42;;;12.60;99.90;;;;;;5007552;28;38386;-78
2022/10/29 05:21:41;;;;;;;32.50;21.08;;;12.60;99.90;;;;;;5004888;28;40605;-77
2022/10/29 05:24:07;;;;;;;36.05;20.92;;;12.60;99.90;;;;;;5004766;28;38323;-79
2022/10/29 05:26:33;;;;;;;34.40;20.30;;;12.60;99.90;;;;;;5006915;28;37921;-79
2022/10/29 05:28:59;;;;;;;39.05;22.35;;;12.60;99.90;;;;;;5008003;28;37466;-78
2022/10/29 05:31:26;;;;;;;34.03;22.80;;;12.60;99.90;;;;;;5005097;28;37319;-78
2022/10/29 05:33:52;;;;;;;35.92;22.38;;;12.60;99.90;;;;;;5004858;28;40281;-77
2022/10/29 05:36:20;;;;;;;40.70;24.45;;;12.60;99.90;;;;;;5008449;28;36602;-78
2022/10/29 05:38:46;;;;;;;32.28;20.13;;;12.50;99.90;;;;;;5007984;28;37234;-77
2022/10/29 05:41:12;;;;;;;22.35;15.23;;;12.50;99.90;;;;;;5007329;28;39463;-78
2022/10/29 05:43:38;;;;;;;38.30;22.67;;;12.40;99.90;;;;;;5006810;28;37471;-79
2022/10/29 05:46:04;;;;;;;34.80;20.80;;;12.50;99.90;;;;;;5006544;28;38588;-79
2022/10/29 05:48:31;;;;;;;33.95;21.98;;;12.50;99.90;;;;;;5011031;28;48537;-79
2022/10/29 05:50:57;;;;;;;42.30;24.13;;;12.60;99.90;;;;;;5006044;28;38974;-78
2022/10/29 05:53:23;;;;;;;23.55;16.35;;;12.60;99.90;;;;;;5002753;28;39178;-78
2022/10/29 05:55:49;;;;;;;25.85;15.80;;;12.60;99.90;;;;;;5019447;28;39484;-79
2022/10/29 05:58:15;;;;;;;31.75;21.88;;;12.60;99.90;;;;;;5009632;28;38718;-78
2022/10/29 06:00:43;;;;;;;28.52;18.65;;;12.70;99.90;;;;;;5006903;28;39103;-78
2022/10/29 06:03:15;;;;;;;42.67;23.83;;;12.70;99.90;;;;;;5000800;28;38008;-79
2022/10/29 06:05:41;;;;;;;42.47;24.95;;;12.80;99.90;;;;;;5006845;28;37997;-79
2022/10/29 06:08:08;;;;;;;37.63;24.23;;;12.90;99.90;;;;;;5000137;28;38731;-78
2022/10/29 06:10:34;;;;;;;36.17;19.80;;;12.90;99.90;;;;;;5002087;28;40482;-79
2022/10/29 06:13:01;;;;;;;41.42;21.90;;;12.90;99.90;;;;;;5000504;28;36992;-79
2022/10/29 06:15:27;;;;;;;29.17;19.70;;;13.00;99.90;;;;;;5006230;28;37203;-79
2022/10/29 06:17:53;;;;;;;30.00;19.63;;;13.00;99.90;;;;;;5006199;28;37361;-79
2022/10/29 06:20:20;;;;;;;49.47;26.45;;;13.10;99.90;;;;;;5006694;28;37793;-79
2022/10/29 06:22:46;;;;;;;42.47;24.48;;;13.10;99.90;;;;;;5008107;28;38961;-79
2022/10/29 06:25:13;;;;;;;44.05;24.27;;;13.10;99.90;;;;;;5005728;28;37826;-78
2022/10/29 06:27:39;;;;;;;48.95;29.48;;;13.10;99.90;;;;;;4997099;28;37490;-79
2022/10/29 06:30:05;;;;;;;53.83;29.98;;;13.20;99.90;;;;;;5006260;28;38944;-78
2022/10/29 06:32:31;;;;;;;33.33;20.00;;;13.30;99.90;;;;;;5009642;28;37273;-79
2022/10/29 06:34:57;;;;;;;37.25;24.15;;;13.30;99.90;;;;;;5008363;28;37875;-79
2022/10/29 06:37:24;;;;;;;32.92;21.23;;;13.40;99.90;;;;;;5002747;28;37262;-78
2022/10/29 06:39:50;;;;;;;39.30;22.75;;;13.50;99.90;;;;;;5000215;28;38915;-79
2022/10/29 06:42:16;;;;;;;60.10;31.50;;;13.50;99.90;;;;;;4998462;28;38211;-79
2022/10/29 06:44:42;;;;;;;38.88;21.70;;;13.50;99.90;;;;;;5001384;28;38832;-79
2022/10/29 06:47:08;;;;;;;43.17;26.42;;;13.60;99.90;;;;;;5003091;28;37344;-79
2022/10/29 06:49:34;;;;;;;45.00;26.40;;;13.60;99.90;;;;;;5003017;28;39576;-78
2022/10/29 06:52:00;;;;;;;38.85;23.63;;;13.70;99.90;;;;;;5005633;28;38257;-78
2022/10/29 06:54:26;;;;;;;43.80;26.25;;;13.70;99.90;;;;;;5010077;28;38661;-79
2022/10/29 06:56:53;;;;;;;41.50;22.70;;;13.80;99.90;;;;;;5002489;28;36118;-79
2022/10/29 06:59:19;;;;;;;33.10;21.48;;;13.90;99.90;;;;;;5009025;28;39632;-79
2022/10/29 07:01:45;;;;;;;52.67;30.25;;;13.90;99.90;;;;;;5006127;28;39119;-79
2022/10/29 07:04:11;;;;;;;58.90;29.50;;;13.90;99.90;;;;;;4996536;28;38110;-78
2022/10/29 07:06:37;;;;;;;45.50;23.90;;;14.00;99.90;;;;;;5007237;28;36972;-79
2022/10/29 07:09:03;;;;;;;41.63;25.70;;;14.00;99.90;;;;;;5005226;28;38862;-78
2022/10/29 07:11:29;;;;;;;50.83;26.77;;;14.00;99.90;;;;;;5007994;28;34886;-79
2022/10/29 07:13:55;;;;;;;61.08;32.95;;;14.00;99.90;;;;;;5009593;28;37612;-79
2022/10/29 07:16:24;;;;;;;41.83;24.58;;;14.10;99.90;;;;;;5007725;28;37756;-79
2022/10/29 07:18:52;;;;;;;44.13;26.52;;;14.20;99.90;;;;;;5008163;28;39575;-78
2022/10/29 07:21:21;;;;;;;52.83;26.83;;;14.20;99.90;;;;;;5003308;28;38633;-78
2022/10/29 07:23:47;;;;;;;42.67;24.20;;;14.30;99.90;;;;;;5003962;28;36635;-79
2022/10/29 07:26:13;;;;;;;49.97;28.08;;;14.30;99.90;;;;;;5000638;28;36776;-80
2022/10/29 07:28:39;;;;;;;45.53;24.55;;;14.40;99.90;;;;;;5004690;28;39543;-81
2022/10/29 07:31:06;;;;;;;57.05;29.50;;;14.50;99.90;;;;;;5000191;28;36773;-82
2022/10/29 07:33:32;;;;;;;39.90;22.70;;;14.50;99.90;;;;;;4997925;28;38672;-82
2022/10/29 07:36:01;;;;;;;51.00;24.90;;;14.50;99.90;;;;;;5000624;28;38007;-82
2022/10/29 07:38:28;;;;;;;36.35;22.98;;;14.50;99.90;;;;;;5006356;28;39507;-82
2022/10/29 07:40:54;;;;;;;57.95;31.40;;;14.50;99.90;;;;;;5009481;28;38631;-80
2022/10/29 07:43:20;;;;;;;35.97;23.23;;;14.60;99.90;;;;;;5007890;28;37901;-82
2022/10/29 07:45:51;;;;;;;58.38;30.80;;;14.70;99.90;;;;;;5006852;28;38169;-83
2022/10/29 07:48:19;;;;;;;50.10;28.30;;;14.70;99.90;;;;;;5000299;28;38893;-82
2022/10/29 07:50:46;;;;;;;41.33;24.83;;;14.80;99.90;;;;;;5002450;28;39291;-80
2022/10/29 07:53:12;;;;;;;37.78;21.50;;;14.90;99.90;;;;;;5003583;28;36879;-82
2022/10/29 07:55:38;;;;;;;47.58;23.85;;;14.90;99.90;;;;;;5002002;28;36726;-81
2022/10/29 07:58:06;;;;;;;33.85;22.95;;;15.10;99.90;;;;;;4995102;28;39083;-80
2022/10/29 08:00:35;;;;;;;57.03;29.98;;;15.10;99.90;;;;;;5006922;28;38385;-80
2022/10/29 08:03:01;;;;;;;41.53;25.40;;;15.20;99.90;;;;;;4998341;28;38157;-80
2022/10/29 08:05:28;;;;;;;42.03;23.10;;;15.20;99.90;;;;;;5004057;28;38649;-80
2022/10/29 08:07:55;;;;;;;37.53;21.98;;;15.20;99.90;;;;;;5002243;28;38620;-84
2022/10/29 08:10:22;;;;;;;44.13;23.77;;;15.30;99.90;;;;;;5006417;28;39762;-79
2022/10/29 08:12:53;;;;;;;32.50;20.17;;;15.40;99.90;;;;;;5001760;28;38905;-79
2022/10/29 08:15:19;;;;;;;36.45;24.38;;;15.40;99.90;;;;;;5000253;28;36486;-83
2022/10/29 08:17:46;;;;;;;38.10;22.13;;;15.50;99.90;;;;;;5001490;28;39347;-81
2022/10/29 08:20:12;;;;;;;39.33;19.88;;;15.50;99.90;;;;;;5000049;28;39168;-81
2022/10/29 08:22:39;;;;;;;37.10;23.02;;;15.50;99.90;;;;;;5003296;28;37949;-79
2022/10/29 08:25:05;;;;;;;33.83;19.95;;;15.50;99.90;;;;;;5004942;28;37103;-82
2022/10/29 08:27:31;;;;;;;37.83;23.90;;;15.60;99.90;;;;;;5004704;28;40392;-81
2022/10/29 08:29:57;;;;;;;37.03;21.85;;;15.60;99.90;;;;;;5004103;28;38233;-82
2022/10/29 08:32:23;;;;;;;33.33;21.77;;;15.60;99.90;;;;;;5003771;28;38380;-80
2022/10/29 08:34:49;;;;;;;37.72;21.17;;;15.70;99.90;;;;;;4990209;28;38294;-81
2022/10/29 08:37:16;;;;;;;45.78;25.73;;;15.70;99.90;;;;;;4985810;28;40159;-81
2022/10/29 08:39:42;;;;;;;38.67;24.77;;;15.80;99.90;;;;;;4997095;28;38453;-82
2022/10/29 08:42:34;;;;;;;32.67;22.80;;;15.90;99.90;;;;;;5005903;28;39962;-81
2022/10/29 08:45:06;;;;;;;32.88;21.67;;;16.00;99.90;;;;;;4997162;28;38244;-81
2022/10/29 08:47:52;;;;;;;40.25;22.98;;;16.00;99.90;;;;;;5004718;28;48829;-80
2022/10/29 08:50:41;;;;;;;43.35;25.25;;;16.10;99.90;;;;;;5002707;28;38537;-81
2022/10/29 08:53:20;;;;;;;31.63;19.65;;;16.20;99.90;;;;;;5003229;28;36458;-80
2022/10/29 08:55:47;;;;;;;33.20;21.10;;;16.20;99.90;;;;;;5002733;28;36230;-78
2022/10/29 08:58:23;;;;;;;32.08;19.67;;;16.20;99.90;;;;;;5004527;28;39629;-80
2022/10/29 09:00:54;;;;;;;36.38;20.55;;;16.30;99.90;;;;;;5003534;28;38561;-80
2022/10/29 09:03:20;;;;;;;31.10;19.08;;;16.40;99.90;;;;;;5000740;28;39448;-78
2022/10/29 09:06:05;;;;;;;34.58;20.55;;;16.40;99.90;;;;;;4993193;28;36144;-81
2022/10/29 09:08:46;;;;;;;34.65;21.88;;;16.40;99.90;;;;;;4995883;28;47011;-80
2022/10/29 09:12:07;;;;;;;29.13;19.20;;;16.50;99.90;;;;;;4996527;28;39354;-81
2022/10/29 09:15:08;;;;;;;31.02;19.50;;;16.60;99.90;;;;;;4998332;28;47535;-81
2022/10/29 09:17:54;;;;;;;27.23;16.42;;;16.70;99.90;;;;;;4978026;28;47245;-81
2022/10/29 09:20:24;;;;;;;27.00;17.42;;;16.70;99.90;;;;;;5000398;28;39993;-77
2022/10/29 09:22:57;;;;;;;37.83;19.08;;;16.70;99.90;;;;;;4997561;28;39126;-80
2022/10/29 09:25:37;;;;;;;28.67;17.17;;;16.70;99.90;;;;;;4985101;28;37523;-80
2022/10/29 09:28:35;;;;;;;33.95;17.83;;;16.70;99.90;;;;;;4993666;28;36338;-79
2022/10/29 09:31:25;;;;;;;29.13;16.42;;;16.70;99.90;;;;;;4996876;28;39792;-79
2022/10/29 09:33:53;;;;;;;30.83;16.63;;;16.70;99.90;;;;;;4993524;28;46975;-78
2022/10/29 09:36:22;;;;;;;30.83;18.33;;;16.80;99.90;;;;;;4995634;28;35697;-79
2022/10/29 09:39:08;;;;;;;30.95;18.08;;;16.90;99.90;;;;;;4998260;28;37142;-80
2022/10/29 09:41:36;;;;;;;31.48;17.17;;;16.90;99.90;;;;;;5014754;28;47011;-79
2022/10/29 09:44:10;;;;;;;26.27;16.30;;;17.00;99.90;;;;;;5001367;28;38437;-79
2022/10/29 09:47:14;;;;;;;24.73;16.65;;;17.00;99.90;;;;;;5005114;28;38891;-79
2022/10/29 09:49:59;;;;;;;25.85;15.70;;;17.10;99.90;;;;;;4997166;28;47099;-78
2022/10/29 09:52:30;;;;;;;28.30;15.20;;;17.00;99.90;;;;;;5005330;28;38705;-80
2022/10/29 09:54:58;;;;;;;28.55;15.40;;;17.00;99.90;;;;;;4999442;28;38026;-80
2022/10/29 09:57:28;;;;;;;29.23;15.52;;;17.00;99.90;;;;;;4992882;28;39956;-80
2022/10/29 10:00:01;;;;;;;24.90;14.25;;;17.00;99.90;;;;;;4997612;28;39608;-80
2022/10/29 10:02:44;;;;;;;30.13;14.88;;;17.00;99.90;;;;;;5004968;28;39062;-79
2022/10/29 10:05:13;;;;;;;29.45;15.60;;;17.00;99.90;;;;;;4999904;28;39250;-79
2022/10/29 10:07:39;;;;;;;23.52;13.80;;;17.00;99.90;;;;;;5001482;28;37975;-79
2022/10/29 10:10:18;;;;;;;27.83;15.15;;;17.10;99.90;;;;;;5001326;28;37482;-79
2022/10/29 10:12:49;;;;;;;29.48;13.20;;;17.20;99.90;;;;;;5003367;28;39139;-77
2022/10/29 10:15:15;;;;;;;33.30;17.77;;;17.30;99.90;;;;;;5006589;28;38878;-79
2022/10/29 10:18:16;;;;;;;24.27;14.05;;;17.40;99.90;;;;;;5002807;28;39580;-79
2022/10/29 10:20:45;;;;;;;22.85;14.23;;;17.40;99.90;;;;;;5006186;28;48744;-80
2022/10/29 10:23:26;;;;;;;18.13;12.43;;;17.50;99.90;;;;;;5007125;28;39769;-80
2022/10/29 10:25:57;;;;;;;24.45;12.85;;;17.60;99.90;;;;;;5003971;28;39058;-79
2022/10/29 10:28:25;;;;;;;27.88;13.30;;;17.60;99.90;;;;;;5015030;28;37607;-81
2022/10/29 10:31:03;;;;;;;26.15;14.07;;;17.60;99.90;;;;;;5015359;28;37229;-79
2022/10/29 10:33:32;;;;;;;30.15;12.45;;;17.70;99.90;;;;;;5011750;28;39255;-78
2022/10/29 10:36:04;;;;;;;25.05;13.32;;;17.90;99.90;;;;;;5011815;28;39726;-79
2022/10/29 10:38:52;;;;;;;24.73;12.55;;;18.10;99.90;;;;;;4991810;28;48507;-79
2022/10/29 10:41:34;;;;;;;26.25;13.20;;;18.20;99.90;;;;;;4987750;28;38265;-78
2022/10/29 10:44:02;;;;;;;20.38;11.65;;;18.30;99.90;;;;;;4984701;28;41029;-80
2022/10/29 10:46:39;;;;;;;31.70;12.85;;;18.40;99.90;;;;;;5007970;28;48085;-78
2022/10/29 10:49:11;;;;;;;24.50;12.23;;;18.40;99.90;;;;;;5025275;28;38389;-78
2022/10/29 10:51:38;;;;;;;;;;;18.60;99.90;;;;;;5006607;28;37626;-78
2022/10/29 10:54:55;;;;;;;19.48;10.57;;;18.60;99.90;;;;;;5002995;28;39507;-80
2022/10/29 10:57:35;;;;;;;20.05;9.20;;;18.80;99.90;;;;;;4964471;28;39530;-80
2022/10/29 11:00:19;;;;;;;18.52;9.02;;;18.90;99.90;;;;;;5021649;28;39488;-80
2022/10/29 11:03:09;;;;;;;17.27;8.65;;;19.00;99.90;;;;;;5002372;28;47305;-77
2022/10/29 11:05:42;;;;;;;16.48;7.57;;;19.10;99.90;;;;;;5003615;28;47165;-77
2022/10/29 11:08:25;;;;;;;18.23;8.07;;;19.20;99.90;;;;;;5006668;28;38916;-76
2022/10/29 11:10:55;;;;;;;17.15;8.05;;;19.30;99.90;;;;;;5009462;28;37636;-79
2022/10/29 11:13:28;;;;;;;18.25;7.65;;;19.40;99.90;;;;;;5004128;28;38104;-78
2022/10/29 11:16:21;;;;;;;18.88;7.55;;;19.50;99.90;;;;;;5006924;28;39035;-79
2022/10/29 11:18:57;;;;;;;18.27;8.20;;;19.60;99.90;;;;;;5006574;28;48961;-77
2022/10/29 11:21:30;;;;;;;15.68;7.13;;;19.50;99.90;;;;;;5002288;28;38093;-80
2022/10/29 11:24:10;;;;;;;;;;;19.60;99.90;;;;;;5001590;28;38134;-75
2022/10/29 11:26:45;;;;;;;20.38;8.65;;;19.70;99.90;;;;;;5002513;28;48642;-77
2022/10/29 11:29:20;;;;;;;15.30;7.03;;;19.80;99.90;;;;;;4996615;28;39843;-77
2022/10/29 11:32:01;;;;;;;15.60;7.30;;;19.90;99.90;;;;;;5000149;28;38016;-76
2022/10/29 11:34:50;;;;;;;18.00;7.18;;;20.20;99.90;;;;;;5010140;28;38292;-77
2022/10/29 11:37:39;;;;;;;22.83;7.70;;;20.60;99.90;;;;;;5006005;28;38905;-78
2022/10/29 11:40:17;;;;;;;16.33;8.13;;;20.60;99.90;;;;;;5022241;28;37436;-78
2022/10/29 11:42:43;;;;;;;16.85;8.20;;;20.60;99.90;;;;;;5007267;28;38311;-78
2022/10/29 11:45:38;;;;;;;18.65;7.85;;;20.60;99.90;;;;;;5004348;28;36040;-77
2022/10/29 11:48:17;;;;;;;23.42;8.13;;;20.60;99.90;;;;;;4992446;28;39239;-76
2022/10/29 11:51:07;;;;;;;16.02;8.13;;;20.60;99.90;;;;;;4995871;28;37837;-77
2022/10/29 11:53:53;;;;;;;20.75;7.55;;;20.50;99.90;;;;;;4986937;28;47282;-78
2022/10/29 11:56:59;;;;;;;18.80;7.70;;;20.60;99.90;;;;;;5015778;28;37677;-78
2022/10/29 11:59:46;;;;;;;17.90;8.05;;;20.60;99.90;;;;;;4983692;28;38990;-81
2022/10/29 12:02:37;;;;;;;22.65;8.00;;;20.50;99.90;;;;;;5000295;28;38709;-78
2022/10/29 12:05:12;;;;;;;16.48;6.57;;;20.40;99.90;;;;;;5006983;28;38013;-78
2022/10/29 12:08:03;;;;;;;17.00;6.65;;;20.40;99.90;;;;;;4998826;28;47308;-79
2022/10/29 12:10:53;;;;;;;18.63;7.15;;;20.40;99.90;;;;;;4999340;28;48793;-78
2022/10/29 12:13:45;;;;;;;17.65;7.20;;;20.50;99.90;;;;;;5004921;28;38897;-80
2022/10/29 12:16:27;;;;;;;13.77;7.13;;;20.40;99.90;;;;;;4995944;28;37865;-79
2022/10/29 12:19:18;;;;;;;16.40;6.57;;;20.50;99.90;;;;;;5004891;28;37940;-78
2022/10/29 12:22:11;;;;;;;14.57;5.90;;;20.50;99.90;;;;;;5000394;28;48634;-76
2022/10/29 12:24:46;;;;;;;17.30;6.32;;;20.60;99.90;;;;;;4994749;28;47560;-77
2022/10/29 12:27:21;;;;;;;15.32;6.70;;;20.60;99.90;;;;;;5014703;28;36452;-78
2022/10/29 12:30:10;;;;;;;19.30;6.70;;;20.60;99.90;;;;;;5001507;28;37282;-80
2022/10/29 12:32:54;;;;;;;13.05;6.05;;;20.60;99.90;;;;;;4998479;28;47584;-78
2022/10/29 12:35:28;;;;;;;19.20;6.18;;;20.60;99.90;;;;;;5008022;28;37142;-78
2022/10/29 12:38:31;;;;;;;14.52;5.93;;;20.70;99.90;;;;;;5008323;28;37062;-78
2022/10/29 12:41:23;;;;;;;15.95;5.80;;;20.80;99.90;;;;;;5004358;28;48637;-77
2022/10/29 12:43:52;;;;;;;18.15;6.55;;;20.90;99.90;;;;;;4989651;28;48639;-78
2022/10/29 12:46:29;;;;;;;12.27;6.13;;;21.00;99.90;;;;;;4998526;28;38985;-79
2022/10/29 12:49:18;;;;;;;16.13;6.30;;;21.20;99.90;;;;;;5009573;28;38840;-78
2022/10/29 12:52:06;;;;;;;14.90;5.90;;;21.50;99.90;;;;;;5004121;28;49064;-78
2022/10/29 12:54:45;;;;;;;10.70;5.55;;;21.60;99.90;;;;;;4995872;28;46917;-78
2022/10/29 12:57:11;;;;;;;15.82;5.13;;;21.90;99.90;;;;;;5006304;28;37418;-78
2022/10/29 12:59:39;;;;;;;12.95;7.15;;;22.00;99.90;;;;;;5000695;28;37640;-78